sensor_id;sensor_type;location;lat;lon;timestamp;P1;durP1;ratioP1;P2;durP2;ratioP2
68866;SDS011;56451;44.804;20.476;2023-08-07T00:02:07;1.63;;;1.10;;
68866;SDS011;56451;44.804;20.476;2023-08-07T00:04:33;1.85;;;1.00;;
68866;SDS011;56451;44.804;20.476;2023-08-07T00:06:59;3.17;;;1.20;;
68866;SDS011;56451;44.804;20.476;2023-08-07T00:09:25;2.43;;;1.07;;
68866;SDS011;56451;44.804;20.476;2023-08-07T00:11:51;2.05;;;1.27;;
68866;SDS011;56451;44.804;20.476;2023-08-07T00:14:17;1.38;;;1.00;;
68866;SDS011;56451;44.804;20.476;2023-08-07T00:16:43;3.40;;;1.25;;
68866;SDS011;56451;44.804;20.476;2023-08-07T00:19:10;3.07;;;1.63;;
68866;SDS011;56451;44.804;20.476;2023-08-07T00:21:36;2.50;;;1.17;;
68866;SDS011;56451;44.804;20.476;2023-08-07T00:24:03;1.67;;;1.17;;
68866;SDS011;56451;44.804;20.476;2023-08-07T00:26:29;3.33;;;1.23;;
68866;SDS011;56451;44.804;20.476;2023-08-07T00:28:58;5.55;;;1.35;;
68866;SDS011;56451;44.804;20.476;2023-08-07T00:31:24;2.70;;;1.13;;
68866;SDS011;56451;44.804;20.476;2023-08-07T00:33:50;3.30;;;1.50;;
68866;SDS011;56451;44.804;20.476;2023-08-07T00:36:19;3.17;;;1.63;;
68866;SDS011;56451;44.804;20.476;2023-08-07T00:38:46;2.83;;;1.50;;
68866;SDS011;56451;44.804;20.476;2023-08-07T00:41:11;1.90;;;1.20;;
68866;SDS011;56451;44.804;20.476;2023-08-07T00:43:37;1.95;;;1.40;;
68866;SDS011;56451;44.804;20.476;2023-08-07T00:46:04;2.30;;;1.67;;
68866;SDS011;56451;44.804;20.476;2023-08-07T00:48:31;2.63;;;1.20;;
68866;SDS011;56451;44.804;20.476;2023-08-07T00:50:57;2.80;;;1.85;;
68866;SDS011;56451;44.804;20.476;2023-08-07T00:53:23;3.83;;;1.40;;
68866;SDS011;56451;44.804;20.476;2023-08-07T00:55:49;2.50;;;1.50;;
68866;SDS011;56451;44.804;20.476;2023-08-07T00:58:16;2.25;;;1.50;;
68866;SDS011;56451;44.804;20.476;2023-08-07T01:00:42;4.32;;;1.50;;
68866;SDS011;56451;44.804;20.476;2023-08-07T01:03:08;1.85;;;1.60;;
68866;SDS011;56451;44.804;20.476;2023-08-07T01:05:38;3.23;;;1.77;;
68866;SDS011;56451;44.804;20.476;2023-08-07T01:08:04;3.25;;;1.60;;
68866;SDS011;56451;44.804;20.476;2023-08-07T01:14:00;2.75;;;1.80;;
68866;SDS011;56451;44.804;20.476;2023-08-07T01:16:48;5.88;;;1.90;;
68866;SDS011;56451;44.804;20.476;2023-08-07T01:19:27;4.30;;;1.90;;
68866;SDS011;56451;44.804;20.476;2023-08-07T01:22:13;2.80;;;1.70;;
68866;SDS011;56451;44.804;20.476;2023-08-07T01:24:48;2.45;;;1.70;;
68866;SDS011;56451;44.804;20.476;2023-08-07T01:29:57;4.68;;;2.10;;
68866;SDS011;56451;44.804;20.476;2023-08-07T01:33:01;2.70;;;1.50;;
68866;SDS011;56451;44.804;20.476;2023-08-07T01:35:44;2.80;;;1.60;;
68866;SDS011;56451;44.804;20.476;2023-08-07T01:38:15;3.55;;;2.17;;
68866;SDS011;56451;44.804;20.476;2023-08-07T01:40:42;2.38;;;1.77;;
68866;SDS011;56451;44.804;20.476;2023-08-07T01:43:09;2.58;;;1.77;;
68866;SDS011;56451;44.804;20.476;2023-08-07T01:45:35;3.73;;;1.90;;
68866;SDS011;56451;44.804;20.476;2023-08-07T01:48:01;4.03;;;1.90;;
68866;SDS011;56451;44.804;20.476;2023-08-07T01:50:28;2.45;;;1.60;;
68866;SDS011;56451;44.804;20.476;2023-08-07T01:52:54;4.97;;;2.20;;
68866;SDS011;56451;44.804;20.476;2023-08-07T01:55:21;3.63;;;2.10;;
68866;SDS011;56451;44.804;20.476;2023-08-07T01:57:51;3.90;;;1.60;;
68866;SDS011;56451;44.804;20.476;2023-08-07T02:00:17;3.53;;;1.92;;
68866;SDS011;56451;44.804;20.476;2023-08-07T02:02:43;3.35;;;1.60;;
68866;SDS011;56451;44.804;20.476;2023-08-07T02:05:10;3.10;;;1.80;;
68866;SDS011;56451;44.804;20.476;2023-08-07T02:07:36;3.75;;;1.63;;
68866;SDS011;56451;44.804;20.476;2023-08-07T02:10:03;4.67;;;1.67;;
68866;SDS011;56451;44.804;20.476;2023-08-07T02:12:29;2.05;;;1.70;;
68866;SDS011;56451;44.804;20.476;2023-08-07T02:14:58;3.92;;;1.70;;
68866;SDS011;56451;44.804;20.476;2023-08-07T02:17:27;3.83;;;1.80;;
68866;SDS011;56451;44.804;20.476;2023-08-07T02:19:55;5.20;;;1.90;;
68866;SDS011;56451;44.804;20.476;2023-08-07T02:22:22;4.37;;;1.70;;
68866;SDS011;56451;44.804;20.476;2023-08-07T02:24:48;5.47;;;1.63;;
68866;SDS011;56451;44.804;20.476;2023-08-07T02:27:14;5.35;;;1.55;;
68866;SDS011;56451;44.804;20.476;2023-08-07T02:29:40;2.83;;;1.90;;
68866;SDS011;56451;44.804;20.476;2023-08-07T02:32:07;6.40;;;1.70;;
68866;SDS011;56451;44.804;20.476;2023-08-07T02:34:35;7.38;;;1.70;;
68866;SDS011;56451;44.804;20.476;2023-08-07T02:37:01;4.95;;;1.88;;
68866;SDS011;56451;44.804;20.476;2023-08-07T02:39:27;5.38;;;1.92;;
68866;SDS011;56451;44.804;20.476;2023-08-07T02:41:53;5.50;;;2.00;;
68866;SDS011;56451;44.804;20.476;2023-08-07T02:44:19;3.22;;;1.80;;
68866;SDS011;56451;44.804;20.476;2023-08-07T02:46:45;2.95;;;1.55;;
68866;SDS011;56451;44.804;20.476;2023-08-07T02:49:11;5.10;;;1.80;;
68866;SDS011;56451;44.804;20.476;2023-08-07T02:51:37;2.70;;;1.60;;
68866;SDS011;56451;44.804;20.476;2023-08-07T02:54:03;5.00;;;2.05;;
68866;SDS011;56451;44.804;20.476;2023-08-07T02:56:29;2.77;;;1.60;;
68866;SDS011;56451;44.804;20.476;2023-08-07T02:58:55;3.70;;;1.58;;
68866;SDS011;56451;44.804;20.476;2023-08-07T03:01:23;2.58;;;1.38;;
68866;SDS011;56451;44.804;20.476;2023-08-07T03:03:49;3.55;;;1.95;;
68866;SDS011;56451;44.804;20.476;2023-08-07T03:06:15;4.13;;;1.80;;
68866;SDS011;56451;44.804;20.476;2023-08-07T03:08:41;2.63;;;1.83;;
68866;SDS011;56451;44.804;20.476;2023-08-07T03:11:08;3.10;;;1.80;;
68866;SDS011;56451;44.804;20.476;2023-08-07T03:13:34;4.35;;;1.83;;
68866;SDS011;56451;44.804;20.476;2023-08-07T03:16:00;3.00;;;1.60;;
68866;SDS011;56451;44.804;20.476;2023-08-07T03:18:28;3.13;;;1.60;;
68866;SDS011;56451;44.804;20.476;2023-08-07T03:20:55;2.90;;;1.40;;
68866;SDS011;56451;44.804;20.476;2023-08-07T03:23:22;4.47;;;1.55;;
68866;SDS011;56451;44.804;20.476;2023-08-07T03:25:48;2.80;;;1.80;;
68866;SDS011;56451;44.804;20.476;2023-08-07T03:28:15;2.90;;;1.80;;
68866;SDS011;56451;44.804;20.476;2023-08-07T03:30:42;4.45;;;1.63;;
68866;SDS011;56451;44.804;20.476;2023-08-07T03:33:11;3.25;;;1.42;;
68866;SDS011;56451;44.804;20.476;2023-08-07T03:35:38;3.28;;;1.63;;
68866;SDS011;56451;44.804;20.476;2023-08-07T03:38:03;2.60;;;1.40;;
68866;SDS011;56451;44.804;20.476;2023-08-07T03:40:30;1.98;;;1.20;;
68866;SDS011;56451;44.804;20.476;2023-08-07T03:42:56;2.08;;;1.60;;
68866;SDS011;56451;44.804;20.476;2023-08-07T03:45:21;5.23;;;1.57;;
68866;SDS011;56451;44.804;20.476;2023-08-07T03:47:48;2.47;;;1.27;;
68866;SDS011;56451;44.804;20.476;2023-08-07T03:50:14;2.03;;;1.67;;
68866;SDS011;56451;44.804;20.476;2023-08-07T03:52:40;2.65;;;1.70;;
68866;SDS011;56451;44.804;20.476;2023-08-07T03:55:06;2.80;;;1.33;;
68866;SDS011;56451;44.804;20.476;2023-08-07T03:57:32;2.33;;;1.57;;
68866;SDS011;56451;44.804;20.476;2023-08-07T03:59:58;3.50;;;1.50;;
68866;SDS011;56451;44.804;20.476;2023-08-07T04:02:29;3.92;;;1.42;;
68866;SDS011;56451;44.804;20.476;2023-08-07T04:04:55;2.58;;;1.60;;
68866;SDS011;56451;44.804;20.476;2023-08-07T04:07:21;2.30;;;1.33;;
68866;SDS011;56451;44.804;20.476;2023-08-07T04:09:47;2.10;;;1.50;;
68866;SDS011;56451;44.804;20.476;2023-08-07T04:12:13;3.80;;;1.77;;
68866;SDS011;56451;44.804;20.476;2023-08-07T04:14:40;3.50;;;1.60;;
68866;SDS011;56451;44.804;20.476;2023-08-07T04:17:06;3.27;;;1.80;;
68866;SDS011;56451;44.804;20.476;2023-08-07T04:19:32;3.50;;;1.70;;
68866;SDS011;56451;44.804;20.476;2023-08-07T04:21:58;4.28;;;1.90;;
68866;SDS011;56451;44.804;20.476;2023-08-07T04:24:24;2.60;;;2.00;;
68866;SDS011;56451;44.804;20.476;2023-08-07T04:26:50;4.00;;;1.90;;
68866;SDS011;56451;44.804;20.476;2023-08-07T04:29:16;4.00;;;1.95;;
68866;SDS011;56451;44.804;20.476;2023-08-07T04:31:42;3.22;;;1.60;;
68866;SDS011;56451;44.804;20.476;2023-08-07T04:34:08;4.40;;;1.90;;
68866;SDS011;56451;44.804;20.476;2023-08-07T04:36:34;4.35;;;1.95;;
68866;SDS011;56451;44.804;20.476;2023-08-07T04:39:00;4.97;;;2.05;;
68866;SDS011;56451;44.804;20.476;2023-08-07T04:41:26;3.57;;;1.70;;
68866;SDS011;56451;44.804;20.476;2023-08-07T04:43:53;4.43;;;1.83;;
68866;SDS011;56451;44.804;20.476;2023-08-07T04:46:19;3.67;;;2.00;;
68866;SDS011;56451;44.804;20.476;2023-08-07T04:48:45;3.88;;;1.75;;
68866;SDS011;56451;44.804;20.476;2023-08-07T04:51:11;5.57;;;2.25;;
68866;SDS011;56451;44.804;20.476;2023-08-07T04:53:37;4.40;;;2.03;;
68866;SDS011;56451;44.804;20.476;2023-08-07T04:56:03;4.07;;;1.80;;
68866;SDS011;56451;44.804;20.476;2023-08-07T04:58:29;3.35;;;1.90;;
68866;SDS011;56451;44.804;20.476;2023-08-07T05:00:55;3.97;;;2.13;;
68866;SDS011;56451;44.804;20.476;2023-08-07T05:03:22;2.57;;;1.83;;
68866;SDS011;56451;44.804;20.476;2023-08-07T05:05:48;5.97;;;1.98;;
68866;SDS011;56451;44.804;20.476;2023-08-07T05:08:14;4.65;;;2.30;;
68866;SDS011;56451;44.804;20.476;2023-08-07T05:10:40;3.85;;;2.00;;
68866;SDS011;56451;44.804;20.476;2023-08-07T05:13:06;2.13;;;1.50;;
68866;SDS011;56451;44.804;20.476;2023-08-07T05:15:31;6.35;;;1.95;;
68866;SDS011;56451;44.804;20.476;2023-08-07T05:17:57;5.40;;;2.00;;
68866;SDS011;56451;44.804;20.476;2023-08-07T05:20:23;4.80;;;1.90;;
68866;SDS011;56451;44.804;20.476;2023-08-07T05:22:49;4.97;;;1.83;;
68866;SDS011;56451;44.804;20.476;2023-08-07T05:25:16;6.85;;;2.10;;
68866;SDS011;56451;44.804;20.476;2023-08-07T05:27:42;5.10;;;2.00;;
68866;SDS011;56451;44.804;20.476;2023-08-07T05:30:09;3.88;;;2.00;;
68866;SDS011;56451;44.804;20.476;2023-08-07T05:32:35;2.60;;;1.90;;
68866;SDS011;56451;44.804;20.476;2023-08-07T05:35:04;4.28;;;1.67;;
68866;SDS011;56451;44.804;20.476;2023-08-07T05:37:31;2.47;;;1.60;;
68866;SDS011;56451;44.804;20.476;2023-08-07T05:39:57;2.90;;;1.77;;
68866;SDS011;56451;44.804;20.476;2023-08-07T05:42:23;2.13;;;1.52;;
68866;SDS011;56451;44.804;20.476;2023-08-07T05:44:48;4.60;;;2.20;;
68866;SDS011;56451;44.804;20.476;2023-08-07T05:47:14;5.60;;;1.70;;
68866;SDS011;56451;44.804;20.476;2023-08-07T05:49:40;3.40;;;1.95;;
68866;SDS011;56451;44.804;20.476;2023-08-07T05:52:06;6.07;;;3.65;;
68866;SDS011;56451;44.804;20.476;2023-08-07T05:54:33;6.47;;;3.30;;
68866;SDS011;56451;44.804;20.476;2023-08-07T05:56:59;9.87;;;3.10;;
68866;SDS011;56451;44.804;20.476;2023-08-07T05:59:25;3.47;;;1.92;;
68866;SDS011;56451;44.804;20.476;2023-08-07T06:01:53;3.95;;;1.92;;
68866;SDS011;56451;44.804;20.476;2023-08-07T06:04:20;4.15;;;2.00;;
68866;SDS011;56451;44.804;20.476;2023-08-07T06:06:47;3.97;;;1.60;;
68866;SDS011;56451;44.804;20.476;2023-08-07T06:09:13;4.32;;;2.50;;
68866;SDS011;56451;44.804;20.476;2023-08-07T06:11:42;2.22;;;1.90;;
68866;SDS011;56451;44.804;20.476;2023-08-07T06:14:08;3.75;;;2.08;;
68866;SDS011;56451;44.804;20.476;2023-08-07T06:16:34;3.63;;;1.63;;
68866;SDS011;56451;44.804;20.476;2023-08-07T06:19:00;2.97;;;1.48;;
68866;SDS011;56451;44.804;20.476;2023-08-07T06:21:26;2.95;;;1.83;;
68866;SDS011;56451;44.804;20.476;2023-08-07T06:23:54;5.17;;;1.60;;
68866;SDS011;56451;44.804;20.476;2023-08-07T06:26:20;3.83;;;2.40;;
68866;SDS011;56451;44.804;20.476;2023-08-07T06:28:47;6.50;;;3.63;;
68866;SDS011;56451;44.804;20.476;2023-08-07T06:31:13;3.47;;;1.83;;
68866;SDS011;56451;44.804;20.476;2023-08-07T06:33:39;3.08;;;1.15;;
68866;SDS011;56451;44.804;20.476;2023-08-07T06:36:06;2.27;;;1.40;;
68866;SDS011;56451;44.804;20.476;2023-08-07T06:38:33;2.80;;;1.52;;
68866;SDS011;56451;44.804;20.476;2023-08-07T06:41:00;3.38;;;1.42;;
68866;SDS011;56451;44.804;20.476;2023-08-07T06:43:26;4.35;;;1.70;;
68866;SDS011;56451;44.804;20.476;2023-08-07T06:45:53;2.87;;;1.53;;
68866;SDS011;56451;44.804;20.476;2023-08-07T06:48:19;2.63;;;1.67;;
68866;SDS011;56451;44.804;20.476;2023-08-07T06:50:46;2.70;;;1.60;;
68866;SDS011;56451;44.804;20.476;2023-08-07T06:53:13;3.13;;;1.47;;
68866;SDS011;56451;44.804;20.476;2023-08-07T06:55:38;3.03;;;1.60;;
68866;SDS011;56451;44.804;20.476;2023-08-07T06:58:07;2.42;;;1.30;;
68866;SDS011;56451;44.804;20.476;2023-08-07T07:00:33;2.15;;;1.00;;
68866;SDS011;56451;44.804;20.476;2023-08-07T07:03:01;2.00;;;1.30;;
68866;SDS011;56451;44.804;20.476;2023-08-07T07:05:30;3.53;;;2.00;;
68866;SDS011;56451;44.804;20.476;2023-08-07T07:07:57;2.75;;;1.80;;
68866;SDS011;56451;44.804;20.476;2023-08-07T07:10:23;4.65;;;1.50;;
68866;SDS011;56451;44.804;20.476;2023-08-07T07:12:49;3.63;;;1.67;;
68866;SDS011;56451;44.804;20.476;2023-08-07T07:15:16;3.05;;;1.55;;
68866;SDS011;56451;44.804;20.476;2023-08-07T07:17:42;2.07;;;1.30;;
68866;SDS011;56451;44.804;20.476;2023-08-07T07:20:08;3.22;;;1.30;;
68866;SDS011;56451;44.804;20.476;2023-08-07T07:22:37;4.25;;;1.65;;
68866;SDS011;56451;44.804;20.476;2023-08-07T07:25:03;3.58;;;1.55;;
68866;SDS011;56451;44.804;20.476;2023-08-07T07:27:30;1.47;;;1.00;;
68866;SDS011;56451;44.804;20.476;2023-08-07T07:29:56;2.78;;;1.40;;
68866;SDS011;56451;44.804;20.476;2023-08-07T07:32:22;1.73;;;1.23;;
68866;SDS011;56451;44.804;20.476;2023-08-07T07:34:48;3.90;;;1.30;;
68866;SDS011;56451;44.804;20.476;2023-08-07T07:37:14;4.50;;;1.40;;
68866;SDS011;56451;44.804;20.476;2023-08-07T07:39:42;3.80;;;1.15;;
68866;SDS011;56451;44.804;20.476;2023-08-07T07:42:08;2.70;;;1.75;;
68866;SDS011;56451;44.804;20.476;2023-08-07T07:44:34;3.58;;;2.53;;
68866;SDS011;56451;44.804;20.476;2023-08-07T07:47:05;3.38;;;2.00;;
68866;SDS011;56451;44.804;20.476;2023-08-07T07:49:32;1.70;;;1.00;;
68866;SDS011;56451;44.804;20.476;2023-08-07T07:51:58;2.72;;;1.13;;
68866;SDS011;56451;44.804;20.476;2023-08-07T07:54:24;2.28;;;1.00;;
68866;SDS011;56451;44.804;20.476;2023-08-07T07:56:51;3.28;;;1.25;;
68866;SDS011;56451;44.804;20.476;2023-08-07T07:59:17;2.13;;;1.23;;
68866;SDS011;56451;44.804;20.476;2023-08-07T08:01:43;2.92;;;1.38;;
68866;SDS011;56451;44.804;20.476;2023-08-07T08:04:09;1.75;;;1.30;;
68866;SDS011;56451;44.804;20.476;2023-08-07T08:06:35;1.90;;;1.10;;
68866;SDS011;56451;44.804;20.476;2023-08-07T08:09:01;3.00;;;1.13;;
68866;SDS011;56451;44.804;20.476;2023-08-07T08:11:30;2.00;;;1.10;;
68866;SDS011;56451;44.804;20.476;2023-08-07T08:13:56;2.78;;;1.25;;
68866;SDS011;56451;44.804;20.476;2023-08-07T08:16:25;1.83;;;1.10;;
68866;SDS011;56451;44.804;20.476;2023-08-07T08:18:51;1.85;;;1.20;;
68866;SDS011;56451;44.804;20.476;2023-08-07T08:21:17;2.40;;;1.20;;
68866;SDS011;56451;44.804;20.476;2023-08-07T08:23:43;2.15;;;0.93;;
68866;SDS011;56451;44.804;20.476;2023-08-07T08:26:09;2.53;;;1.20;;
68866;SDS011;56451;44.804;20.476;2023-08-07T08:28:34;4.83;;;1.40;;
68866;SDS011;56451;44.804;20.476;2023-08-07T08:31:00;2.97;;;1.27;;
68866;SDS011;56451;44.804;20.476;2023-08-07T08:33:26;1.67;;;1.33;;
68866;SDS011;56451;44.804;20.476;2023-08-07T08:35:52;1.73;;;1.23;;
68866;SDS011;56451;44.804;20.476;2023-08-07T08:38:18;1.63;;;1.02;;
68866;SDS011;56451;44.804;20.476;2023-08-07T08:40:45;3.22;;;1.65;;
68866;SDS011;56451;44.804;20.476;2023-08-07T08:43:13;2.40;;;1.10;;
68866;SDS011;56451;44.804;20.476;2023-08-07T08:45:39;2.25;;;1.00;;
68866;SDS011;56451;44.804;20.476;2023-08-07T08:48:07;1.23;;;0.90;;
68866;SDS011;56451;44.804;20.476;2023-08-07T08:50:35;1.52;;;0.90;;
68866;SDS011;56451;44.804;20.476;2023-08-07T08:53:01;1.92;;;1.20;;
68866;SDS011;56451;44.804;20.476;2023-08-07T08:55:28;1.97;;;1.20;;
68866;SDS011;56451;44.804;20.476;2023-08-07T08:57:54;2.75;;;1.55;;
68866;SDS011;56451;44.804;20.476;2023-08-07T09:00:21;2.33;;;1.15;;
68866;SDS011;56451;44.804;20.476;2023-08-07T09:02:51;2.05;;;1.15;;
68866;SDS011;56451;44.804;20.476;2023-08-07T09:05:18;2.25;;;1.42;;
68866;SDS011;56451;44.804;20.476;2023-08-07T09:07:48;1.83;;;1.27;;
68866;SDS011;56451;44.804;20.476;2023-08-07T09:10:14;1.52;;;1.20;;
68866;SDS011;56451;44.804;20.476;2023-08-07T09:12:57;1.83;;;1.00;;
68866;SDS011;56451;44.804;20.476;2023-08-07T09:15:26;3.10;;;1.10;;
68866;SDS011;56451;44.804;20.476;2023-08-07T09:17:55;1.95;;;1.20;;
68866;SDS011;56451;44.804;20.476;2023-08-07T09:20:22;2.73;;;1.30;;
68866;SDS011;56451;44.804;20.476;2023-08-07T09:22:48;1.40;;;1.05;;
68866;SDS011;56451;44.804;20.476;2023-08-07T09:25:14;2.85;;;1.42;;
68866;SDS011;56451;44.804;20.476;2023-08-07T09:27:51;3.10;;;1.40;;
68866;SDS011;56451;44.804;20.476;2023-08-07T09:30:17;3.88;;;1.50;;
68866;SDS011;56451;44.804;20.476;2023-08-07T09:32:46;4.83;;;1.40;;
68866;SDS011;56451;44.804;20.476;2023-08-07T09:35:13;3.15;;;1.40;;
68866;SDS011;56451;44.804;20.476;2023-08-07T09:37:39;2.05;;;1.20;;
68866;SDS011;56451;44.804;20.476;2023-08-07T09:40:05;4.40;;;1.50;;
68866;SDS011;56451;44.804;20.476;2023-08-07T09:42:32;3.15;;;1.60;;
68866;SDS011;56451;44.804;20.476;2023-08-07T09:44:59;2.97;;;1.25;;
68866;SDS011;56451;44.804;20.476;2023-08-07T09:47:26;1.77;;;1.10;;
68866;SDS011;56451;44.804;20.476;2023-08-07T09:49:53;2.17;;;1.33;;
68866;SDS011;56451;44.804;20.476;2023-08-07T09:52:20;2.33;;;1.40;;
68866;SDS011;56451;44.804;20.476;2023-08-07T09:54:46;2.17;;;1.70;;
68866;SDS011;56451;44.804;20.476;2023-08-07T09:57:12;3.08;;;1.63;;
68866;SDS011;56451;44.804;20.476;2023-08-07T09:59:39;7.25;;;2.97;;
68866;SDS011;56451;44.804;20.476;2023-08-07T10:02:06;5.93;;;1.30;;
68866;SDS011;56451;44.804;20.476;2023-08-07T10:04:33;3.67;;;1.50;;
68866;SDS011;56451;44.804;20.476;2023-08-07T10:07:00;3.83;;;1.75;;
68866;SDS011;56451;44.804;20.476;2023-08-07T10:09:27;3.33;;;1.80;;
68866;SDS011;56451;44.804;20.476;2023-08-07T10:11:53;3.20;;;1.67;;
68866;SDS011;56451;44.804;20.476;2023-08-07T10:14:20;1.97;;;1.47;;
68866;SDS011;56451;44.804;20.476;2023-08-07T10:16:47;2.65;;;1.90;;
68866;SDS011;56451;44.804;20.476;2023-08-07T10:19:14;3.67;;;2.17;;
68866;SDS011;56451;44.804;20.476;2023-08-07T10:21:41;2.63;;;2.05;;
68866;SDS011;56451;44.804;20.476;2023-08-07T10:24:08;2.13;;;1.77;;
68866;SDS011;56451;44.804;20.476;2023-08-07T10:26:37;2.27;;;1.80;;
68866;SDS011;56451;44.804;20.476;2023-08-07T10:29:09;2.65;;;2.00;;
68866;SDS011;56451;44.804;20.476;2023-08-07T10:31:38;3.05;;;1.52;;
68866;SDS011;56451;44.804;20.476;2023-08-07T10:34:07;5.72;;;2.40;;
68866;SDS011;56451;44.804;20.476;2023-08-07T10:36:33;1.90;;;1.33;;
68866;SDS011;56451;44.804;20.476;2023-08-07T10:39:10;2.10;;;1.60;;
68866;SDS011;56451;44.804;20.476;2023-08-07T10:41:37;3.15;;;1.15;;
68866;SDS011;56451;44.804;20.476;2023-08-07T10:44:05;2.47;;;1.35;;
68866;SDS011;56451;44.804;20.476;2023-08-07T10:46:46;1.70;;;1.27;;
68866;SDS011;56451;44.804;20.476;2023-08-07T10:54:41;2.58;;;1.48;;
68866;SDS011;56451;44.804;20.476;2023-08-07T10:57:11;2.83;;;1.77;;
68866;SDS011;56451;44.804;20.476;2023-08-07T10:59:43;2.35;;;1.60;;
68866;SDS011;56451;44.804;20.476;2023-08-07T11:02:31;1.95;;;1.30;;
68866;SDS011;56451;44.804;20.476;2023-08-07T11:04:58;3.30;;;1.70;;
68866;SDS011;56451;44.804;20.476;2023-08-07T11:07:25;3.08;;;1.35;;
68866;SDS011;56451;44.804;20.476;2023-08-07T11:09:52;2.72;;;1.42;;
68866;SDS011;56451;44.804;20.476;2023-08-07T11:12:19;2.25;;;1.40;;
68866;SDS011;56451;44.804;20.476;2023-08-07T11:14:45;2.10;;;1.30;;
68866;SDS011;56451;44.804;20.476;2023-08-07T11:17:14;3.50;;;1.13;;
68866;SDS011;56451;44.804;20.476;2023-08-07T11:19:41;3.15;;;1.10;;
68866;SDS011;56451;44.804;20.476;2023-08-07T11:22:08;2.70;;;1.17;;
68866;SDS011;56451;44.804;20.476;2023-08-07T11:24:34;1.60;;;1.00;;
68866;SDS011;56451;44.804;20.476;2023-08-07T11:27:00;2.10;;;1.20;;
68866;SDS011;56451;44.804;20.476;2023-08-07T11:29:26;3.53;;;1.58;;
68866;SDS011;56451;44.804;20.476;2023-08-07T11:31:52;2.22;;;1.20;;
68866;SDS011;56451;44.804;20.476;2023-08-07T11:34:19;2.35;;;1.33;;
68866;SDS011;56451;44.804;20.476;2023-08-07T11:36:45;3.00;;;1.30;;
68866;SDS011;56451;44.804;20.476;2023-08-07T11:39:12;1.90;;;1.10;;
68866;SDS011;56451;44.804;20.476;2023-08-07T11:41:39;2.50;;;1.45;;
68866;SDS011;56451;44.804;20.476;2023-08-07T11:44:09;4.47;;;1.67;;
68866;SDS011;56451;44.804;20.476;2023-08-07T11:46:35;5.18;;;1.60;;
68866;SDS011;56451;44.804;20.476;2023-08-07T11:49:02;3.95;;;1.60;;
68866;SDS011;56451;44.804;20.476;2023-08-07T11:51:32;4.97;;;1.93;;
68866;SDS011;56451;44.804;20.476;2023-08-07T11:53:58;3.65;;;1.30;;
68866;SDS011;56451;44.804;20.476;2023-08-07T11:56:25;4.43;;;1.45;;
68866;SDS011;56451;44.804;20.476;2023-08-07T11:58:51;2.25;;;1.50;;
68866;SDS011;56451;44.804;20.476;2023-08-07T12:01:20;2.05;;;1.42;;
68866;SDS011;56451;44.804;20.476;2023-08-07T12:06:23;4.45;;;1.40;;
68866;SDS011;56451;44.804;20.476;2023-08-07T12:08:52;3.30;;;1.58;;
68866;SDS011;56451;44.804;20.476;2023-08-07T12:11:20;1.92;;;1.38;;
68866;SDS011;56451;44.804;20.476;2023-08-07T12:13:49;3.90;;;1.40;;
68866;SDS011;56451;44.804;20.476;2023-08-07T12:16:16;2.07;;;1.10;;
68866;SDS011;56451;44.804;20.476;2023-08-07T12:18:46;3.25;;;1.50;;
68866;SDS011;56451;44.804;20.476;2023-08-07T12:21:14;2.40;;;1.35;;
68866;SDS011;56451;44.804;20.476;2023-08-07T12:23:49;2.92;;;1.50;;
68866;SDS011;56451;44.804;20.476;2023-08-07T12:26:17;2.42;;;1.60;;
68866;SDS011;56451;44.804;20.476;2023-08-07T12:28:43;3.00;;;1.67;;
68866;SDS011;56451;44.804;20.476;2023-08-07T12:31:09;3.22;;;1.48;;
68866;SDS011;56451;44.804;20.476;2023-08-07T12:33:35;2.33;;;1.40;;
68866;SDS011;56451;44.804;20.476;2023-08-07T12:36:01;2.87;;;1.70;;
68866;SDS011;56451;44.804;20.476;2023-08-07T12:38:27;2.60;;;1.77;;
68866;SDS011;56451;44.804;20.476;2023-08-07T12:40:54;5.38;;;1.40;;
68866;SDS011;56451;44.804;20.476;2023-08-07T12:43:20;2.80;;;1.55;;
68866;SDS011;56451;44.804;20.476;2023-08-07T12:45:47;2.88;;;1.35;;
68866;SDS011;56451;44.804;20.476;2023-08-07T12:48:13;2.33;;;1.27;;
68866;SDS011;56451;44.804;20.476;2023-08-07T12:50:40;3.10;;;1.50;;
68866;SDS011;56451;44.804;20.476;2023-08-07T12:53:06;4.18;;;1.73;;
68866;SDS011;56451;44.804;20.476;2023-08-07T12:55:33;4.32;;;1.98;;
68866;SDS011;56451;44.804;20.476;2023-08-07T12:57:59;3.58;;;1.58;;
68866;SDS011;56451;44.804;20.476;2023-08-07T13:00:25;1.83;;;1.52;;
68866;SDS011;56451;44.804;20.476;2023-08-07T13:02:52;3.43;;;1.50;;
68866;SDS011;56451;44.804;20.476;2023-08-07T13:05:19;3.42;;;2.00;;
68866;SDS011;56451;44.804;20.476;2023-08-07T13:07:46;3.88;;;1.77;;
68866;SDS011;56451;44.804;20.476;2023-08-07T13:10:14;3.65;;;1.80;;
68866;SDS011;56451;44.804;20.476;2023-08-07T13:12:42;6.55;;;2.55;;
68866;SDS011;56451;44.804;20.476;2023-08-07T13:15:09;6.77;;;2.73;;
68866;SDS011;56451;44.804;20.476;2023-08-07T13:17:41;4.22;;;2.08;;
68866;SDS011;56451;44.804;20.476;2023-08-07T13:20:08;4.95;;;1.83;;
68866;SDS011;56451;44.804;20.476;2023-08-07T13:22:39;2.60;;;2.05;;
68866;SDS011;56451;44.804;20.476;2023-08-07T13:25:09;4.13;;;1.80;;
68866;SDS011;56451;44.804;20.476;2023-08-07T13:27:36;2.30;;;1.60;;
68866;SDS011;56451;44.804;20.476;2023-08-07T13:30:03;3.50;;;2.15;;
68866;SDS011;56451;44.804;20.476;2023-08-07T13:32:31;2.60;;;2.00;;
68866;SDS011;56451;44.804;20.476;2023-08-07T13:35:00;4.30;;;1.98;;
68866;SDS011;56451;44.804;20.476;2023-08-07T13:37:26;3.03;;;2.50;;
68866;SDS011;56451;44.804;20.476;2023-08-07T13:39:52;4.53;;;2.20;;
68866;SDS011;56451;44.804;20.476;2023-08-07T13:42:19;5.07;;;2.00;;
68866;SDS011;56451;44.804;20.476;2023-08-07T13:44:45;4.97;;;2.85;;
68866;SDS011;56451;44.804;20.476;2023-08-07T13:47:11;3.03;;;1.90;;
68866;SDS011;56451;44.804;20.476;2023-08-07T13:49:38;3.07;;;1.50;;
68866;SDS011;56451;44.804;20.476;2023-08-07T13:52:04;2.85;;;1.60;;
68866;SDS011;56451;44.804;20.476;2023-08-07T13:54:30;2.33;;;2.10;;
68866;SDS011;56451;44.804;20.476;2023-08-07T13:56:56;3.97;;;2.05;;
68866;SDS011;56451;44.804;20.476;2023-08-07T13:59:22;4.80;;;2.27;;
68866;SDS011;56451;44.804;20.476;2023-08-07T14:01:48;5.60;;;2.20;;
68866;SDS011;56451;44.804;20.476;2023-08-07T14:04:14;4.45;;;2.10;;
68866;SDS011;56451;44.804;20.476;2023-08-07T14:06:41;5.00;;;2.10;;
68866;SDS011;56451;44.804;20.476;2023-08-07T14:09:10;5.90;;;2.57;;
68866;SDS011;56451;44.804;20.476;2023-08-07T14:11:37;5.57;;;2.00;;
68866;SDS011;56451;44.804;20.476;2023-08-07T14:14:03;3.63;;;2.03;;
68866;SDS011;56451;44.804;20.476;2023-08-07T14:16:29;3.40;;;1.90;;
68866;SDS011;56451;44.804;20.476;2023-08-07T14:18:55;3.77;;;2.40;;
68866;SDS011;56451;44.804;20.476;2023-08-07T14:21:21;8.30;;;2.33;;
68866;SDS011;56451;44.804;20.476;2023-08-07T14:23:46;2.08;;;1.50;;
68866;SDS011;56451;44.804;20.476;2023-08-07T14:26:14;4.20;;;1.80;;
68866;SDS011;56451;44.804;20.476;2023-08-07T14:28:42;2.65;;;1.50;;
68866;SDS011;56451;44.804;20.476;2023-08-07T14:31:08;2.70;;;2.00;;
68866;SDS011;56451;44.804;20.476;2023-08-07T14:33:35;3.75;;;2.08;;
68866;SDS011;56451;44.804;20.476;2023-08-07T14:36:03;2.90;;;1.90;;
68866;SDS011;56451;44.804;20.476;2023-08-07T14:38:30;3.10;;;1.55;;
68866;SDS011;56451;44.804;20.476;2023-08-07T14:40:56;1.98;;;1.65;;
68866;SDS011;56451;44.804;20.476;2023-08-07T14:43:24;3.00;;;2.00;;
68866;SDS011;56451;44.804;20.476;2023-08-07T14:45:54;2.55;;;1.50;;
68866;SDS011;56451;44.804;20.476;2023-08-07T14:48:20;3.73;;;2.63;;